sensor_id;sensor_type;location;lat;lon;timestamp;P1;durP1;ratioP1;P2;durP2;ratioP2
19183;SDS011;9724;51.194;6.856;2024-03-02T00:01:15;2.23;;;2.03;;
19183;SDS011;9724;51.194;6.856;2024-03-02T00:03:42;1.73;;;1.63;;
19183;SDS011;9724;51.194;6.856;2024-03-02T00:06:09;1.87;;;1.73;;
19183;SDS011;9724;51.194;6.856;2024-03-02T00:08:35;2.90;;;1.90;;
19183;SDS011;9724;51.194;6.856;2024-03-02T00:11:02;1.67;;;1.57;;
19183;SDS011;9724;51.194;6.856;2024-03-02T00:13:28;1.67;;;1.57;;
19183;SDS011;9724;51.194;6.856;2024-03-02T00:15:56;1.90;;;1.80;;
19183;SDS011;9724;51.194;6.856;2024-03-02T00:18:24;1.70;;;1.60;;
19183;SDS011;9724;51.194;6.856;2024-03-02T00:20:53;4.30;;;1.80;;
19183;SDS011;9724;51.194;6.856;2024-03-02T00:23:20;1.70;;;1.60;;
19183;SDS011;9724;51.194;6.856;2024-03-02T00:25:48;1.60;;;1.33;;
19183;SDS011;9724;51.194;6.856;2024-03-02T00:28:17;1.77;;;1.63;;
19183;SDS011;9724;51.194;6.856;2024-03-02T00:33:30;1.70;;;1.60;;
19183;SDS011;9724;51.194;6.856;2024-03-02T00:35:58;3.40;;;1.80;;
19183;SDS011;9724;51.194;6.856;2024-03-02T00:38:25;3.03;;;1.50;;
19183;SDS011;9724;51.194;6.856;2024-03-02T00:40:51;1.70;;;1.60;;
19183;SDS011;9724;51.194;6.856;2024-03-02T00:43:36;3.03;;;1.63;;
19183;SDS011;9724;51.194;6.856;2024-03-02T00:46:13;3.43;;;1.60;;
19183;SDS011;9724;51.194;6.856;2024-03-02T00:48:45;1.60;;;1.50;;
19183;SDS011;9724;51.194;6.856;2024-03-02T00:51:24;1.67;;;1.50;;
19183;SDS011;9724;51.194;6.856;2024-03-02T00:53:52;1.60;;;1.50;;
19183;SDS011;9724;51.194;6.856;2024-03-02T00:56:22;1.80;;;1.70;;
19183;SDS011;9724;51.194;6.856;2024-03-02T00:58:49;4.73;;;1.70;;
19183;SDS011;9724;51.194;6.856;2024-03-02T01:01:15;2.90;;;1.67;;
19183;SDS011;9724;51.194;6.856;2024-03-02T01:03:42;2.27;;;1.27;;
19183;SDS011;9724;51.194;6.856;2024-03-02T01:06:09;1.67;;;1.47;;
19183;SDS011;9724;51.194;6.856;2024-03-02T01:08:36;1.30;;;1.20;;
19183;SDS011;9724;51.194;6.856;2024-03-02T01:11:02;1.70;;;1.60;;
19183;SDS011;9724;51.194;6.856;2024-03-02T01:13:29;2.67;;;1.60;;
19183;SDS011;9724;51.194;6.856;2024-03-02T01:15:56;3.17;;;1.60;;
19183;SDS011;9724;51.194;6.856;2024-03-02T01:18:22;1.50;;;1.40;;
19183;SDS011;9724;51.194;6.856;2024-03-02T01:20:49;2.50;;;1.50;;
19183;SDS011;9724;51.194;6.856;2024-03-02T01:23:17;2.40;;;1.60;;
19183;SDS011;9724;51.194;6.856;2024-03-02T01:25:45;1.60;;;1.50;;
19183;SDS011;9724;51.194;6.856;2024-03-02T01:28:12;2.30;;;1.60;;
19183;SDS011;9724;51.194;6.856;2024-03-02T01:30:38;2.10;;;1.40;;
19183;SDS011;9724;51.194;6.856;2024-03-02T01:33:04;2.40;;;1.77;;
19183;SDS011;9724;51.194;6.856;2024-03-02T01:35:31;2.00;;;1.57;;
19183;SDS011;9724;51.194;6.856;2024-03-02T01:37:57;3.70;;;1.43;;
19183;SDS011;9724;51.194;6.856;2024-03-02T01:40:23;2.60;;;1.40;;
19183;SDS011;9724;51.194;6.856;2024-03-02T01:42:53;5.47;;;1.60;;
19183;SDS011;9724;51.194;6.856;2024-03-02T01:45:19;1.60;;;1.50;;
19183;SDS011;9724;51.194;6.856;2024-03-02T01:47:46;1.63;;;1.57;;
19183;SDS011;9724;51.194;6.856;2024-03-02T01:50:12;3.50;;;1.60;;
19183;SDS011;9724;51.194;6.856;2024-03-02T01:52:39;1.33;;;1.33;;
19183;SDS011;9724;51.194;6.856;2024-03-02T01:55:06;1.67;;;1.57;;
19183;SDS011;9724;51.194;6.856;2024-03-02T01:57:33;2.57;;;1.77;;
19183;SDS011;9724;51.194;6.856;2024-03-02T02:00:00;1.70;;;1.57;;
19183;SDS011;9724;51.194;6.856;2024-03-02T02:02:27;2.20;;;1.60;;
19183;SDS011;9724;51.194;6.856;2024-03-02T02:04:53;1.90;;;1.40;;
19183;SDS011;9724;51.194;6.856;2024-03-02T02:07:20;1.20;;;1.20;;
19183;SDS011;9724;51.194;6.856;2024-03-02T02:09:46;3.17;;;1.60;;
19183;SDS011;9724;51.194;6.856;2024-03-02T02:12:12;1.50;;;1.40;;
19183;SDS011;9724;51.194;6.856;2024-03-02T02:14:39;1.50;;;1.40;;
19183;SDS011;9724;51.194;6.856;2024-03-02T02:17:06;1.00;;;1.00;;
19183;SDS011;9724;51.194;6.856;2024-03-02T02:19:32;1.77;;;1.67;;
19183;SDS011;9724;51.194;6.856;2024-03-02T02:21:58;1.17;;;1.17;;
19183;SDS011;9724;51.194;6.856;2024-03-02T02:24:25;1.60;;;1.47;;
19183;SDS011;9724;51.194;6.856;2024-03-02T02:26:51;2.00;;;1.40;;
19183;SDS011;9724;51.194;6.856;2024-03-02T02:29:17;1.40;;;1.30;;
19183;SDS011;9724;51.194;6.856;2024-03-02T02:31:44;1.40;;;1.30;;
19183;SDS011;9724;51.194;6.856;2024-03-02T02:34:10;1.53;;;1.43;;
19183;SDS011;9724;51.194;6.856;2024-03-02T02:36:36;2.70;;;1.37;;
19183;SDS011;9724;51.194;6.856;2024-03-02T02:39:05;2.40;;;1.57;;
19183;SDS011;9724;51.194;6.856;2024-03-02T02:41:36;4.33;;;1.47;;
19183;SDS011;9724;51.194;6.856;2024-03-02T02:44:02;1.80;;;1.50;;
19183;SDS011;9724;51.194;6.856;2024-03-02T02:46:29;3.83;;;1.57;;
19183;SDS011;9724;51.194;6.856;2024-03-02T02:48:56;1.80;;;1.47;;
19183;SDS011;9724;51.194;6.856;2024-03-02T02:51:22;1.67;;;1.13;;
19183;SDS011;9724;51.194;6.856;2024-03-02T02:53:50;2.90;;;1.20;;
19183;SDS011;9724;51.194;6.856;2024-03-02T02:56:17;2.10;;;1.33;;
19183;SDS011;9724;51.194;6.856;2024-03-02T02:58:44;1.93;;;1.40;;
19183;SDS011;9724;51.194;6.856;2024-03-02T03:01:10;3.20;;;1.50;;
19183;SDS011;9724;51.194;6.856;2024-03-02T03:03:36;2.27;;;1.50;;
19183;SDS011;9724;51.194;6.856;2024-03-02T03:06:03;2.00;;;1.47;;
19183;SDS011;9724;51.194;6.856;2024-03-02T03:08:29;2.17;;;1.60;;
19183;SDS011;9724;51.194;6.856;2024-03-02T03:10:55;3.17;;;1.57;;
19183;SDS011;9724;51.194;6.856;2024-03-02T03:13:23;2.50;;;1.30;;
19183;SDS011;9724;51.194;6.856;2024-03-02T03:15:49;1.50;;;1.40;;
19183;SDS011;9724;51.194;6.856;2024-03-02T03:18:15;1.53;;;1.40;;
19183;SDS011;9724;51.194;6.856;2024-03-02T03:20:42;1.23;;;1.23;;
19183;SDS011;9724;51.194;6.856;2024-03-02T03:23:08;2.67;;;1.20;;
19183;SDS011;9724;51.194;6.856;2024-03-02T03:25:34;1.17;;;1.17;;
19183;SDS011;9724;51.194;6.856;2024-03-02T03:28:01;2.03;;;1.30;;
19183;SDS011;9724;51.194;6.856;2024-03-02T03:30:29;2.57;;;1.23;;
19183;SDS011;9724;51.194;6.856;2024-03-02T03:32:55;2.13;;;0.93;;
19183;SDS011;9724;51.194;6.856;2024-03-02T03:35:22;1.30;;;1.20;;
19183;SDS011;9724;51.194;6.856;2024-03-02T03:37:48;1.33;;;1.17;;
19183;SDS011;9724;51.194;6.856;2024-03-02T03:40:15;1.47;;;1.37;;
19183;SDS011;9724;51.194;6.856;2024-03-02T03:42:41;3.03;;;1.23;;
19183;SDS011;9724;51.194;6.856;2024-03-02T03:45:08;1.30;;;1.30;;
19183;SDS011;9724;51.194;6.856;2024-03-02T03:47:35;3.70;;;1.40;;
19183;SDS011;9724;51.194;6.856;2024-03-02T03:50:02;1.40;;;1.30;;
19183;SDS011;9724;51.194;6.856;2024-03-02T03:52:32;1.60;;;1.30;;
19183;SDS011;9724;51.194;6.856;2024-03-02T03:54:58;2.40;;;1.43;;
19183;SDS011;9724;51.194;6.856;2024-03-02T03:57:25;1.40;;;1.30;;
19183;SDS011;9724;51.194;6.856;2024-03-02T03:59:52;1.77;;;1.50;;
19183;SDS011;9724;51.194;6.856;2024-03-02T04:02:18;3.60;;;1.70;;
19183;SDS011;9724;51.194;6.856;2024-03-02T04:04:45;2.70;;;1.47;;
19183;SDS011;9724;51.194;6.856;2024-03-02T04:07:11;1.83;;;1.40;;
19183;SDS011;9724;51.194;6.856;2024-03-02T04:09:37;1.30;;;1.20;;
19183;SDS011;9724;51.194;6.856;2024-03-02T04:12:04;1.50;;;1.40;;
19183;SDS011;9724;51.194;6.856;2024-03-02T04:14:30;1.20;;;1.13;;
19183;SDS011;9724;51.194;6.856;2024-03-02T04:16:57;3.50;;;1.40;;
19183;SDS011;9724;51.194;6.856;2024-03-02T04:19:23;1.30;;;1.20;;
19183;SDS011;9724;51.194;6.856;2024-03-02T04:21:50;1.67;;;1.30;;
19183;SDS011;9724;51.194;6.856;2024-03-02T04:24:17;1.43;;;1.20;;
19183;SDS011;9724;51.194;6.856;2024-03-02T04:26:43;2.87;;;1.20;;
19183;SDS011;9724;51.194;6.856;2024-03-02T04:29:09;1.50;;;1.40;;
19183;SDS011;9724;51.194;6.856;2024-03-02T04:31:35;2.13;;;1.33;;
19183;SDS011;9724;51.194;6.856;2024-03-02T04:34:02;1.33;;;1.23;;
19183;SDS011;9724;51.194;6.856;2024-03-02T04:36:28;1.17;;;1.03;;
19183;SDS011;9724;51.194;6.856;2024-03-02T04:38:56;1.70;;;1.40;;
19183;SDS011;9724;51.194;6.856;2024-03-02T04:41:22;1.40;;;1.30;;
19183;SDS011;9724;51.194;6.856;2024-03-02T04:43:48;1.37;;;1.20;;
19183;SDS011;9724;51.194;6.856;2024-03-02T04:46:15;3.87;;;1.40;;
19183;SDS011;9724;51.194;6.856;2024-03-02T04:48:41;2.50;;;1.40;;
19183;SDS011;9724;51.194;6.856;2024-03-02T04:51:08;3.20;;;1.63;;
19183;SDS011;9724;51.194;6.856;2024-03-02T04:53:34;3.30;;;1.40;;
19183;SDS011;9724;51.194;6.856;2024-03-02T04:56:01;1.57;;;1.43;;
19183;SDS011;9724;51.194;6.856;2024-03-02T04:58:57;2.73;;;1.70;;
19183;SDS011;9724;51.194;6.856;2024-03-02T05:01:24;4.23;;;1.63;;
19183;SDS011;9724;51.194;6.856;2024-03-02T05:03:50;1.43;;;1.33;;
19183;SDS011;9724;51.194;6.856;2024-03-02T05:06:17;1.70;;;1.60;;
19183;SDS011;9724;51.194;6.856;2024-03-02T05:08:43;1.60;;;1.50;;
19183;SDS011;9724;51.194;6.856;2024-03-02T05:11:10;1.47;;;1.37;;
19183;SDS011;9724;51.194;6.856;2024-03-02T05:14:14;2.43;;;1.40;;
19183;SDS011;9724;51.194;6.856;2024-03-02T05:16:40;1.90;;;1.77;;
19183;SDS011;9724;51.194;6.856;2024-03-02T05:19:07;4.50;;;1.90;;
19183;SDS011;9724;51.194;6.856;2024-03-02T05:21:33;2.20;;;1.73;;
19183;SDS011;9724;51.194;6.856;2024-03-02T05:23:59;2.47;;;1.57;;
19183;SDS011;9724;51.194;6.856;2024-03-02T05:26:26;4.67;;;1.67;;
19183;SDS011;9724;51.194;6.856;2024-03-02T05:28:53;2.00;;;1.50;;
19183;SDS011;9724;51.194;6.856;2024-03-02T05:31:19;2.40;;;1.90;;
19183;SDS011;9724;51.194;6.856;2024-03-02T05:33:45;4.17;;;1.80;;
19183;SDS011;9724;51.194;6.856;2024-03-02T05:36:12;2.77;;;1.60;;
19183;SDS011;9724;51.194;6.856;2024-03-02T05:38:38;2.47;;;1.93;;
19183;SDS011;9724;51.194;6.856;2024-03-02T05:41:05;2.60;;;1.73;;
19183;SDS011;9724;51.194;6.856;2024-03-02T05:43:32;2.93;;;2.03;;
19183;SDS011;9724;51.194;6.856;2024-03-02T05:45:58;2.30;;;1.67;;
19183;SDS011;9724;51.194;6.856;2024-03-02T05:48:24;3.23;;;1.90;;
19183;SDS011;9724;51.194;6.856;2024-03-02T05:50:51;3.00;;;1.70;;
19183;SDS011;9724;51.194;6.856;2024-03-02T05:53:17;1.73;;;1.63;;
19183;SDS011;9724;51.194;6.856;2024-03-02T05:55:43;3.00;;;1.47;;
19183;SDS011;9724;51.194;6.856;2024-03-02T05:58:10;4.00;;;1.40;;
19183;SDS011;9724;51.194;6.856;2024-03-02T06:00:48;2.47;;;1.60;;
19183;SDS011;9724;51.194;6.856;2024-03-02T06:03:15;2.00;;;1.60;;
19183;SDS011;9724;51.194;6.856;2024-03-02T06:05:41;3.20;;;1.70;;
19183;SDS011;9724;51.194;6.856;2024-03-02T06:08:08;2.90;;;1.80;;
19183;SDS011;9724;51.194;6.856;2024-03-02T06:10:34;3.00;;;1.60;;
19183;SDS011;9724;51.194;6.856;2024-03-02T06:13:00;3.50;;;1.40;;
19183;SDS011;9724;51.194;6.856;2024-03-02T06:15:27;2.73;;;1.70;;
19183;SDS011;9724;51.194;6.856;2024-03-02T06:17:54;2.10;;;1.60;;
19183;SDS011;9724;51.194;6.856;2024-03-02T06:20:20;4.10;;;1.47;;
19183;SDS011;9724;51.194;6.856;2024-03-02T06:22:47;3.40;;;1.70;;
19183;SDS011;9724;51.194;6.856;2024-03-02T06:25:13;2.93;;;2.00;;
19183;SDS011;9724;51.194;6.856;2024-03-02T06:27:39;2.10;;;1.90;;
19183;SDS011;9724;51.194;6.856;2024-03-02T06:30:06;1.80;;;1.70;;
19183;SDS011;9724;51.194;6.856;2024-03-02T06:32:34;2.33;;;1.80;;
19183;SDS011;9724;51.194;6.856;2024-03-02T06:35:01;2.73;;;1.80;;
19183;SDS011;9724;51.194;6.856;2024-03-02T06:37:29;2.30;;;2.03;;
19183;SDS011;9724;51.194;6.856;2024-03-02T06:39:56;3.47;;;1.80;;
19183;SDS011;9724;51.194;6.856;2024-03-02T06:42:22;3.20;;;2.07;;
19183;SDS011;9724;51.194;6.856;2024-03-02T06:44:49;2.13;;;1.70;;
19183;SDS011;9724;51.194;6.856;2024-03-02T06:47:16;2.70;;;1.90;;
19183;SDS011;9724;51.194;6.856;2024-03-02T06:49:42;2.03;;;1.93;;
19183;SDS011;9724;51.194;6.856;2024-03-02T06:52:09;2.13;;;1.97;;
19183;SDS011;9724;51.194;6.856;2024-03-02T06:54:36;2.93;;;1.80;;
19183;SDS011;9724;51.194;6.856;2024-03-02T06:57:02;2.10;;;1.83;;
19183;SDS011;9724;51.194;6.856;2024-03-02T06:59:29;3.53;;;1.97;;
19183;SDS011;9724;51.194;6.856;2024-03-02T07:01:55;2.40;;;1.90;;
19183;SDS011;9724;51.194;6.856;2024-03-02T07:04:22;2.70;;;1.70;;
19183;SDS011;9724;51.194;6.856;2024-03-02T07:06:48;3.13;;;2.00;;
19183;SDS011;9724;51.194;6.856;2024-03-02T07:09:15;5.27;;;2.10;;
19183;SDS011;9724;51.194;6.856;2024-03-02T07:11:41;4.60;;;1.80;;
19183;SDS011;9724;51.194;6.856;2024-03-02T07:14:08;2.30;;;2.10;;
19183;SDS011;9724;51.194;6.856;2024-03-02T07:16:34;2.10;;;1.97;;
19183;SDS011;9724;51.194;6.856;2024-03-02T07:19:04;2.37;;;1.90;;
19183;SDS011;9724;51.194;6.856;2024-03-02T07:21:30;2.20;;;1.90;;
19183;SDS011;9724;51.194;6.856;2024-03-02T07:23:57;6.23;;;2.50;;
19183;SDS011;9724;51.194;6.856;2024-03-02T07:26:25;2.73;;;2.20;;
19183;SDS011;9724;51.194;6.856;2024-03-02T07:28:54;2.40;;;2.20;;
19183;SDS011;9724;51.194;6.856;2024-03-02T07:31:21;4.00;;;2.20;;
19183;SDS011;9724;51.194;6.856;2024-03-02T07:33:47;2.47;;;1.93;;
19183;SDS011;9724;51.194;6.856;2024-03-02T07:36:14;3.63;;;2.17;;
19183;SDS011;9724;51.194;6.856;2024-03-02T07:38:40;4.80;;;2.30;;
19183;SDS011;9724;51.194;6.856;2024-03-02T07:41:07;3.23;;;2.10;;
19183;SDS011;9724;51.194;6.856;2024-03-02T07:43:34;3.83;;;2.00;;
19183;SDS011;9724;51.194;6.856;2024-03-02T07:46:00;4.53;;;2.20;;
19183;SDS011;9724;51.194;6.856;2024-03-02T07:48:28;4.23;;;2.50;;
19183;SDS011;9724;51.194;6.856;2024-03-02T07:50:55;2.70;;;1.83;;
19183;SDS011;9724;51.194;6.856;2024-03-02T07:53:22;4.20;;;1.90;;
19183;SDS011;9724;51.194;6.856;2024-03-02T07:55:48;2.70;;;2.20;;
19183;SDS011;9724;51.194;6.856;2024-03-02T07:58:14;6.07;;;2.13;;
19183;SDS011;9724;51.194;6.856;2024-03-02T08:00:41;3.50;;;2.40;;
19183;SDS011;9724;51.194;6.856;2024-03-02T08:03:08;2.70;;;2.10;;
19183;SDS011;9724;51.194;6.856;2024-03-02T08:05:36;2.53;;;2.00;;
19183;SDS011;9724;51.194;6.856;2024-03-02T08:08:05;2.77;;;1.77;;
19183;SDS011;9724;51.194;6.856;2024-03-02T08:10:32;3.67;;;2.03;;
19183;SDS011;9724;51.194;6.856;2024-03-02T08:12:59;1.90;;;1.80;;
19183;SDS011;9724;51.194;6.856;2024-03-02T08:15:25;3.50;;;2.00;;
19183;SDS011;9724;51.194;6.856;2024-03-02T08:17:52;2.27;;;2.07;;
19183;SDS011;9724;51.194;6.856;2024-03-02T08:20:19;3.07;;;1.90;;
19183;SDS011;9724;51.194;6.856;2024-03-02T08:22:45;2.40;;;2.20;;
19183;SDS011;9724;51.194;6.856;2024-03-02T08:25:12;3.10;;;2.20;;
19183;SDS011;9724;51.194;6.856;2024-03-02T08:27:39;4.17;;;2.17;;
19183;SDS011;9724;51.194;6.856;2024-03-02T08:30:06;1.90;;;1.80;;
19183;SDS011;9724;51.194;6.856;2024-03-02T08:32:34;3.43;;;2.00;;
19183;SDS011;9724;51.194;6.856;2024-03-02T08:35:02;3.90;;;2.03;;
19183;SDS011;9724;51.194;6.856;2024-03-02T08:37:29;5.00;;;2.13;;
19183;SDS011;9724;51.194;6.856;2024-03-02T08:39:55;2.03;;;1.80;;
19183;SDS011;9724;51.194;6.856;2024-03-02T08:42:22;2.23;;;1.90;;
19183;SDS011;9724;51.194;6.856;2024-03-02T08:44:48;3.90;;;1.80;;
19183;SDS011;9724;51.194;6.856;2024-03-02T08:47:15;2.93;;;2.03;;
19183;SDS011;9724;51.194;6.856;2024-03-02T08:49:41;3.13;;;2.07;;
19183;SDS011;9724;51.194;6.856;2024-03-02T08:52:09;2.20;;;2.00;;
19183;SDS011;9724;51.194;6.856;2024-03-02T08:54:35;3.90;;;2.07;;
19183;SDS011;9724;51.194;6.856;2024-03-02T08:57:01;2.63;;;2.00;;
19183;SDS011;9724;51.194;6.856;2024-03-02T08:59:28;6.50;;;1.97;;
19183;SDS011;9724;51.194;6.856;2024-03-02T09:01:54;2.87;;;2.10;;
19183;SDS011;9724;51.194;6.856;2024-03-02T09:04:20;2.10;;;1.73;;
19183;SDS011;9724;51.194;6.856;2024-03-02T09:06:51;4.70;;;1.90;;
19183;SDS011;9724;51.194;6.856;2024-03-02T09:09:18;3.57;;;2.37;;
19183;SDS011;9724;51.194;6.856;2024-03-02T09:11:45;2.13;;;1.93;;
19183;SDS011;9724;51.194;6.856;2024-03-02T09:14:12;6.13;;;2.10;;
19183;SDS011;9724;51.194;6.856;2024-03-02T09:16:40;3.07;;;1.90;;
19183;SDS011;9724;51.194;6.856;2024-03-02T09:19:06;4.30;;;2.03;;
19183;SDS011;9724;51.194;6.856;2024-03-02T09:21:33;2.57;;;1.83;;
19183;SDS011;9724;51.194;6.856;2024-03-02T09:24:00;2.00;;;1.90;;
19183;SDS011;9724;51.194;6.856;2024-03-02T09:26:28;2.97;;;1.90;;
19183;SDS011;9724;51.194;6.856;2024-03-02T09:28:55;1.80;;;1.70;;
19183;SDS011;9724;51.194;6.856;2024-03-02T09:31:21;3.60;;;1.60;;
19183;SDS011;9724;51.194;6.856;2024-03-02T09:33:47;2.70;;;1.77;;
19183;SDS011;9724;51.194;6.856;2024-03-02T09:36:17;2.20;;;1.50;;
19183;SDS011;9724;51.194;6.856;2024-03-02T09:38:43;3.30;;;1.90;;
19183;SDS011;9724;51.194;6.856;2024-03-02T09:41:10;2.30;;;1.70;;
19183;SDS011;9724;51.194;6.856;2024-03-02T09:43:37;4.07;;;1.33;;
19183;SDS011;9724;51.194;6.856;2024-03-02T09:46:03;3.20;;;0.90;;
19183;SDS011;9724;51.194;6.856;2024-03-02T09:48:30;2.43;;;1.17;;
19183;SDS011;9724;51.194;6.856;2024-03-02T09:50:57;2.60;;;1.00;;
19183;SDS011;9724;51.194;6.856;2024-03-02T09:53:23;1.70;;;1.07;;
19183;SDS011;9724;51.194;6.856;2024-03-02T09:55:49;1.97;;;1.20;;
19183;SDS011;9724;51.194;6.856;2024-03-02T09:58:16;3.33;;;1.23;;
19183;SDS011;9724;51.194;6.856;2024-03-02T10:00:43;4.20;;;1.60;;
19183;SDS011;9724;51.194;6.856;2024-03-02T10:03:11;1.10;;;1.10;;
19183;SDS011;9724;51.194;6.856;2024-03-02T10:05:38;3.17;;;1.30;;
19183;SDS011;9724;51.194;6.856;2024-03-02T10:08:04;1.17;;;1.17;;
19183;SDS011;9724;51.194;6.856;2024-03-02T10:10:35;1.40;;;1.30;;
19183;SDS011;9724;51.194;6.856;2024-03-02T10:13:05;1.93;;;1.10;;
19183;SDS011;9724;51.194;6.856;2024-03-02T10:15:32;1.30;;;1.20;;
19183;SDS011;9724;51.194;6.856;2024-03-02T10:17:59;1.93;;;1.50;;
19183;SDS011;9724;51.194;6.856;2024-03-02T10:20:26;2.23;;;1.20;;
19183;SDS011;9724;51.194;6.856;2024-03-02T10:22:54;3.50;;;1.23;;
19183;SDS011;9724;51.194;6.856;2024-03-02T10:25:30;3.00;;;1.60;;
19183;SDS011;9724;51.194;6.856;2024-03-02T10:28:12;3.27;;;1.70;;
19183;SDS011;9724;51.194;6.856;2024-03-02T10:30:39;1.57;;;1.37;;
19183;SDS011;9724;51.194;6.856;2024-03-02T10:33:06;2.80;;;1.50;;
19183;SDS011;9724;51.194;6.856;2024-03-02T10:35:32;1.70;;;1.60;;
19183;SDS011;9724;51.194;6.856;2024-03-02T10:38:03;4.20;;;1.33;;
19183;SDS011;9724;51.194;6.856;2024-03-02T10:40:29;7.73;;;1.40;;
19183;SDS011;9724;51.194;6.856;2024-03-02T10:42:56;2.70;;;1.47;;
19183;SDS011;9724;51.194;6.856;2024-03-02T10:45:22;1.50;;;1.40;;
19183;SDS011;9724;51.194;6.856;2024-03-02T10:47:49;2.57;;;1.80;;
19183;SDS011;9724;51.194;6.856;2024-03-02T10:50:17;2.70;;;1.60;;
19183;SDS011;9724;51.194;6.856;2024-03-02T10:52:43;6.47;;;1.50;;
19183;SDS011;9724;51.194;6.856;2024-03-02T10:55:10;2.00;;;1.40;;
19183;SDS011;9724;51.194;6.856;2024-03-02T10:57:40;1.53;;;1.43;;
19183;SDS011;9724;51.194;6.856;2024-03-02T11:00:08;2.67;;;1.47;;
19183;SDS011;9724;51.194;6.856;2024-03-02T11:02:41;1.30;;;1.20;;
19183;SDS011;9724;51.194;6.856;2024-03-02T11:05:08;2.73;;;1.30;;
19183;SDS011;9724;51.194;6.856;2024-03-02T11:07:37;2.00;;;1.53;;
19183;SDS011;9724;51.194;6.856;2024-03-02T11:10:04;1.83;;;1.47;;
19183;SDS011;9724;51.194;6.856;2024-03-02T11:12:35;4.03;;;1.60;;
19183;SDS011;9724;51.194;6.856;2024-03-02T11:15:04;4.17;;;1.60;;
19183;SDS011;9724;51.194;6.856;2024-03-02T11:17:35;4.77;;;1.40;;
19183;SDS011;9724;51.194;6.856;2024-03-02T11:20:02;4.80;;;1.40;;
19183;SDS011;9724;51.194;6.856;2024-03-02T11:22:30;2.77;;;1.53;;
19183;SDS011;9724;51.194;6.856;2024-03-02T11:24:57;4.17;;;1.73;;
19183;SDS011;9724;51.194;6.856;2024-03-02T11:33:24;4.93;;;1.40;;
19183;SDS011;9724;51.194;6.856;2024-03-02T11:35:56;3.23;;;1.40;;
19183;SDS011;9724;51.194;6.856;2024-03-02T11:38:27;1.20;;;1.20;;
19183;SDS011;9724;51.194;6.856;2024-03-02T11:40:54;1.90;;;1.10;;
19183;SDS011;9724;51.194;6.856;2024-03-02T11:43:20;5.07;;;2.83;;
19183;SDS011;9724;51.194;6.856;2024-03-02T11:45:47;2.47;;;1.40;;
19183;SDS011;9724;51.194;6.856;2024-03-02T11:48:13;1.40;;;1.30;;
19183;SDS011;9724;51.194;6.856;2024-03-02T11:50:41;2.03;;;1.10;;
19183;SDS011;9724;51.194;6.856;2024-03-02T11:53:08;4.27;;;1.50;;
19183;SDS011;9724;51.194;6.856;2024-03-02T11:55:37;2.30;;;1.57;;
19183;SDS011;9724;51.194;6.856;2024-03-02T11:58:05;1.40;;;1.30;;
19183;SDS011;9724;51.194;6.856;2024-03-02T12:00:32;5.30;;;1.63;;
19183;SDS011;9724;51.194;6.856;2024-03-02T12:02:59;1.47;;;1.33;;
19183;SDS011;9724;51.194;6.856;2024-03-02T12:05:26;3.10;;;1.43;;
19183;SDS011;9724;51.194;6.856;2024-03-02T12:07:55;6.23;;;2.87;;
19183;SDS011;9724;51.194;6.856;2024-03-02T12:10:23;4.90;;;1.83;;
19183;SDS011;9724;51.194;6.856;2024-03-02T12:12:55;5.47;;;2.27;;
19183;SDS011;9724;51.194;6.856;2024-03-02T12:15:23;2.50;;;1.93;;
19183;SDS011;9724;51.194;6.856;2024-03-02T12:17:52;4.27;;;1.80;;
19183;SDS011;9724;51.194;6.856;2024-03-02T12:20:20;1.77;;;1.30;;
19183;SDS011;9724;51.194;6.856;2024-03-02T12:22:46;6.93;;;1.90;;
19183;SDS011;9724;51.194;6.856;2024-03-02T12:25:13;1.40;;;1.10;;
19183;SDS011;9724;51.194;6.856;2024-03-02T12:27:41;4.80;;;2.00;;
19183;SDS011;9724;51.194;6.856;2024-03-02T12:30:09;3.53;;;1.70;;
19183;SDS011;9724;51.194;6.856;2024-03-02T12:32:37;3.27;;;1.87;;
19183;SDS011;9724;51.194;6.856;2024-03-02T12:35:05;1.80;;;1.50;;
19183;SDS011;9724;51.194;6.856;2024-03-02T12:37:32;1.70;;;1.50;;
19183;SDS011;9724;51.194;6.856;2024-03-02T12:39:59;2.17;;;1.80;;
19183;SDS011;9724;51.194;6.856;2024-03-02T12:42:25;3.67;;;1.40;;
19183;SDS011;9724;51.194;6.856;2024-03-02T12:44:52;1.63;;;1.47;;
19183;SDS011;9724;51.194;6.856;2024-03-02T12:47:19;2.20;;;1.50;;
19183;SDS011;9724;51.194;6.856;2024-03-02T12:49:46;1.70;;;1.60;;
19183;SDS011;9724;51.194;6.856;2024-03-02T12:52:12;1.53;;;1.33;;
19183;SDS011;9724;51.194;6.856;2024-03-02T12:54:39;2.40;;;1.30;;
19183;SDS011;9724;51.194;6.856;2024-03-02T12:57:06;1.80;;;1.20;;
19183;SDS011;9724;51.194;6.856;2024-03-02T12:59:32;3.73;;;1.30;;
19183;SDS011;9724;51.194;6.856;2024-03-02T13:01:58;1.30;;;1.20;;
19183;SDS011;9724;51.194;6.856;2024-03-02T13:04:27;1.43;;;1.33;;
19183;SDS011;9724;51.194;6.856;2024-03-02T13:06:55;2.83;;;1.17;;
19183;SDS011;9724;51.194;6.856;2024-03-02T13:09:23;1.13;;;1.10;;
19183;SDS011;9724;51.194;6.856;2024-03-02T13:11:49;2.33;;;1.17;;
19183;SDS011;9724;51.194;6.856;2024-03-02T13:14:16;1.23;;;1.13;;
19183;SDS011;9724;51.194;6.856;2024-03-02T13:16:44;2.90;;;0.90;;
19183;SDS011;9724;51.194;6.856;2024-03-02T13:19:13;1.77;;;1.20;;
19183;SDS011;9724;51.194;6.856;2024-03-02T13:21:40;1.10;;;1.00;;
19183;SDS011;9724;51.194;6.856;2024-03-02T13:24:08;3.03;;;1.10;;
19183;SDS011;9724;51.194;6.856;2024-03-02T13:26:34;2.83;;;1.37;;
19183;SDS011;9724;51.194;6.856;2024-03-02T13:29:00;2.93;;;1.10;;
19183;SDS011;9724;51.194;6.856;2024-03-02T13:31:27;2.43;;;1.10;;
19183;SDS011;9724;51.194;6.856;2024-03-02T13:33:53;1.53;;;1.00;;
19183;SDS011;9724;51.194;6.856;2024-03-02T13:36:19;1.00;;;1.00;;
19183;SDS011;9724;51.194;6.856;2024-03-02T13:38:45;1.27;;;1.07;;
19183;SDS011;9724;51.194;6.856;2024-03-02T13:41:12;1.57;;;1.00;;
19183;SDS011;9724;51.194;6.856;2024-03-02T13:43:39;0.97;;;0.97;;
19183;SDS011;9724;51.194;6.856;2024-03-02T13:46:05;1.20;;;1.10;;
19183;SDS011;9724;51.194;6.856;2024-03-02T13:48:32;2.57;;;1.20;;
19183;SDS011;9724;51.194;6.856;2024-03-02T13:50:58;1.50;;;1.20;;
19183;SDS011;9724;51.194;6.856;2024-03-02T13:53:24;1.30;;;1.17;;
19183;SDS011;9724;51.194;6.856;2024-03-02T13:55:51;1.23;;;1.13;;
19183;SDS011;9724;51.194;6.856;2024-03-02T13:58:18;0.90;;;0.90;;
19183;SDS011;9724;51.194;6.856;2024-03-02T14:00:46;1.00;;;1.00;;
19183;SDS011;9724;51.194;6.856;2024-03-02T14:03:12;2.23;;;1.03;;
19183;SDS011;9724;51.194;6.856;2024-03-02T14:05:39;1.47;;;1.10;;
19183;SDS011;9724;51.194;6.856;2024-03-02T14:08:05;1.47;;;1.20;;
19183;SDS011;9724;51.194;6.856;2024-03-02T14:10:31;1.90;;;0.90;;
19183;SDS011;9724;51.194;6.856;2024-03-02T14:12:58;3.00;;;1.20;;
19183;SDS011;9724;51.194;6.856;2024-03-02T14:15:25;1.10;;;1.10;;
19183;SDS011;9724;51.194;6.856;2024-03-02T14:17:51;1.13;;;0.90;;
19183;SDS011;9724;51.194;6.856;2024-03-02T14:20:17;1.13;;;1.03;;
19183;SDS011;9724;51.194;6.856;2024-03-02T14:22:48;2.00;;;1.27;;
19183;SDS011;9724;51.194;6.856;2024-03-02T14:25:15;1.30;;;1.17;;
19183;SDS011;9724;51.194;6.856;2024-03-02T14:27:42;1.30;;;1.20;;
19183;SDS011;9724;51.194;6.856;2024-03-02T14:30:29;1.07;;;0.93;;
19183;SDS011;9724;51.194;6.856;2024-03-02T14:32:55;1.10;;;1.10;;
19183;SDS011;9724;51.194;6.856;2024-03-02T14:35:22;1.03;;;0.90;;
19183;SDS011;9724;51.194;6.856;2024-03-02T14:37:49;1.23;;;0.97;;
19183;SDS011;9724;51.194;6.856;2024-03-02T14:40:15;1.97;;;1.73;;
19183;SDS011;9724;51.194;6.856;2024-03-02T14:42:42;1.03;;;1.00;;
19183;SDS011;9724;51.194;6.856;2024-03-02T14:45:12;1.27;;;1.13;;
19183;SDS011;9724;51.194;6.856;2024-03-02T14:47:40;1.20;;;1.10;;
19183;SDS011;9724;51.194;6.856;2024-03-02T14:50:06;1.47;;;1.00;;
19183;SDS011;9724;51.194;6.856;2024-03-02T14:52:34;0.77;;;0.77;;
19183;SDS011;9724;51.194;6.856;2024-03-02T14:55:00;1.10;;;0.97;;
19183;SDS011;9724;51.194;6.856;2024-03-02T14:57:28;1.23;;;1.10;;
19183;SDS011;9724;51.194;6.856;2024-03-02T14:59:54;0.97;;;0.80;;
19183;SDS011;9724;51.194;6.856;2024-03-02T15:02:21;0.80;;;0.80;;
19183;SDS011;9724;51.194;6.856;2024-03-02T15:04:50;0.90;;;0.90;;
19183;SDS011;9724;51.194;6.856;2024-03-02T15:07:17;1.10;;;1.00;;
19183;SDS011;9724;51.194;6.856;2024-03-02T15:09:43;0.90;;;0.90;;